Time;durP1;ratioP1;P1;durP2;ratioP2;P2;SDS_P1;SDS_P2;PMS_P1;PMS_P2;Temp;Humidity;BMP_temperature;BMP_pressure;BME280_temperature;BME280_humidity;BME280_pressure;Samples;Min_cycle;Max_cycle;Signal;HPM_P1;HPM_P2
2022/10/22 00:00:28;;;;;;;8.75;6.90;;;;;;;;;;630115;23;1002;-62
2022/10/22 00:01:37;;;;;;;11.18;7.03;;;;;;;;;;630579;23;1048;-62
2022/10/22 00:02:45;;;;;;;12.02;6.72;;;;;;;;;;630337;23;921;-62
2022/10/22 00:03:53;;;;;;;8.50;6.57;;;;;;;;;;629135;23;1496;-62
2022/10/22 00:05:01;;;;;;;9.98;6.55;;;;;;;;;;627596;23;1518;-62
2022/10/22 00:06:09;;;;;;;10.60;6.32;;;;;;;;;;627320;23;1484;-61
2022/10/22 00:07:18;;;;;;;11.55;6.35;;;;;;;;;;633770;23;956;-62
2022/10/22 00:08:26;;;;;;;7.95;6.25;;;;;;;;;;631052;23;931;-62
2022/10/22 00:09:34;;;;;;;9.98;6.20;;;;;;;;;;627361;23;1280;-62
2022/10/22 00:10:42;;;;;;;9.40;6.50;;;;;;;;;;625012;23;1004;-62
2022/10/22 00:11:50;;;;;;;8.70;6.20;;;;;;;;;;627701;23;902;-62
2022/10/22 00:12:58;;;;;;;10.05;6.38;;;;;;;;;;627929;23;1018;-62
2022/10/22 00:14:06;;;;;;;8.57;6.22;;;;;;;;;;627681;23;1538;-62
2022/10/22 00:15:14;;;;;;;12.20;6.60;;;;;;;;;;627166;23;1643;-62
2022/10/22 00:16:22;;;;;;;10.30;6.38;;;;;;;;;;627113;23;946;-62
2022/10/22 00:17:30;;;;;;;7.80;6.20;;;;;;;;;;625408;23;1034;-62
2022/10/22 00:18:38;;;;;;;11.18;6.60;;;;;;;;;;628027;23;1329;-62
2022/10/22 00:19:46;;;;;;;10.57;6.88;;;;;;;;;;627829;23;970;-62
2022/10/22 00:20:53;;;;;;;9.70;6.38;;;;;;;;;;632947;23;1344;-62
2022/10/22 00:22:04;;;;;;;13.38;6.60;;;;;;;;;;633947;23;1030;-62
2022/10/22 00:23:12;;;;;;;12.35;6.60;;;;;;;;;;630585;23;836;-63
2022/10/22 00:24:20;;;;;;;10.50;6.60;;;;;;;;;;631032;23;1110;-62
2022/10/22 00:25:28;;;;;;;7.40;5.80;;;;;;;;;;630766;23;925;-62
2022/10/22 00:26:38;;;;;;;8.85;5.90;;;;;;;;;;631847;23;882;-62
2022/10/22 00:27:46;;;;;;;9.85;6.32;;;;;;;;;;630928;23;776;-62
2022/10/22 00:28:54;;;;;;;8.27;6.10;;;;;;;;;;629652;23;1130;-62
2022/10/22 00:30:02;;;;;;;8.85;5.97;;;;;;;;;;627746;23;1422;-62
2022/10/22 00:31:10;;;;;;;12.68;6.93;;;;;;;;;;630472;23;962;-62
2022/10/22 00:32:18;;;;;;;13.07;6.93;;;;;;;;;;630853;23;1252;-62
2022/10/22 00:33:27;;;;;;;10.00;7.00;;;;;;;;;;623679;23;1957;-62
2022/10/22 00:34:37;;;;;;;12.57;6.80;;;;;;;;;;627179;23;1320;-62
2022/10/22 00:35:45;;;;;;;9.63;6.88;;;;;;;;;;626760;23;1120;-63
2022/10/22 00:36:53;;;;;;;13.05;7.45;;;;;;;;;;624318;23;1275;-62
2022/10/22 00:38:01;;;;;;;10.63;6.60;;;;;;;;;;621338;23;1410;-62
2022/10/22 00:39:09;;;;;;;11.55;6.60;;;;;;;;;;624999;23;1400;-62
2022/10/22 00:40:17;;;;;;;12.07;6.95;;;;;;;;;;630463;23;1142;-62
2022/10/22 00:41:25;;;;;;;11.30;7.72;;;;;;;;;;630715;23;1271;-62
2022/10/22 00:42:34;;;;;;;11.15;7.05;;;;;;;;;;631175;23;1008;-62
2022/10/22 00:43:55;;;;;;;8.40;5.93;;;;;;;;;;630773;23;1326;-62
2022/10/22 00:45:23;;;;;;;8.63;5.70;;;;;;;;;;624594;23;1165;-62
2022/10/22 00:46:31;;;;;;;9.15;6.20;;;;;;;;;;621918;23;1396;-62
2022/10/22 00:47:42;;;;;;;9.88;6.10;;;;;;;;;;627538;23;953;-62
2022/10/22 00:48:50;;;;;;;8.20;5.93;;;;;;;;;;630244;23;1243;-62
2022/10/22 00:49:58;;;;;;;8.25;6.10;;;;;;;;;;631157;23;860;-60
2022/10/22 00:51:12;;;;;;;10.30;6.30;;;;;;;;;;630862;23;1430;-62
2022/10/22 00:52:23;;;;;;;11.27;6.00;;;;;;;;;;627976;23;852;-62
2022/10/22 00:53:33;;;;;;;11.25;6.57;;;;;;;;;;627893;23;1405;-62
2022/10/22 00:54:43;;;;;;;10.32;6.50;;;;;;;;;;627454;23;1253;-62
2022/10/22 00:55:52;;;;;;;8.05;6.50;;;;;;;;;;630907;23;954;-62
2022/10/22 00:57:01;;;;;;;9.50;6.38;;;;;;;;;;630580;23;1285;-62
2022/10/22 00:58:11;;;;;;;12.68;6.53;;;;;;;;;;628431;23;1069;-62
2022/10/22 00:59:20;;;;;;;10.20;6.32;;;;;;;;;;631085;23;951;-62
2022/10/22 01:00:29;;;;;;;10.45;6.20;;;;;;;;;;628035;23;1402;-61
2022/10/22 01:01:37;;;;;;;7.63;5.80;;;;;;;;;;624274;23;1366;-63
2022/10/22 01:02:45;;;;;;;8.65;5.85;;;;;;;;;;630867;23;1003;-62
2022/10/22 01:03:54;;;;;;;10.20;6.28;;;;;;;;;;627145;23;1287;-62
2022/10/22 01:05:02;;;;;;;9.98;6.40;;;;;;;;;;627783;23;856;-62
2022/10/22 01:06:12;;;;;;;7.70;6.15;;;;;;;;;;631402;23;1360;-62
2022/10/22 01:07:23;;;;;;;9.20;6.20;;;;;;;;;;628044;23;1069;-62
2022/10/22 01:08:41;;;;;;;10.77;6.20;;;;;;;;;;630848;23;1030;-62
2022/10/22 01:10:06;;;;;;;10.98;6.00;;;;;;;;;;624994;23;1604;-62
2022/10/22 01:11:22;;;;;;;8.07;5.75;;;;;;;;;;627571;23;891;-62
2022/10/22 01:12:53;;;;;;;8.27;5.60;;;;;;;;;;628012;23;885;-62
2022/10/22 01:14:19;;;;;;;8.60;5.50;;;;;;;;;;617906;23;1308;-62
2022/10/22 01:15:49;;;;;;;9.20;6.10;;;;;;;;;;624777;23;983;-62
2022/10/22 01:17:07;;;;;;;6.95;5.75;;;;;;;;;;627276;23;1287;-62
2022/10/22 01:18:23;;;;;;;7.57;5.35;;;;;;;;;;624736;23;1397;-62
2022/10/22 01:19:49;;;;;;;8.88;5.85;;;;;;;;;;631267;23;923;-62
2022/10/22 01:21:13;;;;;;;7.32;5.32;;;;;;;;;;631057;23;958;-62
2022/10/22 01:22:41;;;;;;;8.95;5.32;;;;;;;;;;625133;23;1285;-62
2022/10/22 01:24:30;;;;;;;10.43;6.03;;;;;;;;;;623307;23;1243;-62
2022/10/22 01:25:46;;;;;;;9.30;5.75;;;;;;;;;;621959;23;1332;-62
2022/10/22 01:27:32;;;;;;;8.45;5.72;;;;;;;;;;628884;23;1109;-62
2022/10/22 01:28:47;;;;;;;8.32;5.05;;;;;;;;;;627959;23;1512;-62
2022/10/22 01:30:03;;;;;;;9.68;5.38;;;;;;;;;;631106;23;992;-62
2022/10/22 01:31:12;;;;;;;9.55;5.68;;;;;;;;;;631230;23;859;-62
2022/10/22 01:32:48;;;;;;;9.70;5.50;;;;;;;;;;628185;23;1402;-62
2022/10/22 01:33:58;;;;;;;10.85;5.90;;;;;;;;;;627303;23;1027;-62
2022/10/22 01:35:09;;;;;;;10.82;6.03;;;;;;;;;;627499;23;1407;-62
2022/10/22 01:36:20;;;;;;;8.70;6.22;;;;;;;;;;631617;23;1040;-62
2022/10/22 01:37:31;;;;;;;7.50;5.95;;;;;;;;;;630747;23;1417;-62
2022/10/22 01:38:45;;;;;;;7.72;5.88;;;;;;;;;;628216;23;1249;-62
2022/10/22 01:39:54;;;;;;;12.18;6.15;;;;;;;;;;628156;23;1559;-62
2022/10/22 01:41:03;;;;;;;11.05;6.30;;;;;;;;;;628166;23;1234;-62
2022/10/22 01:42:12;;;;;;;8.18;6.05;;;;;;;;;;628479;23;1411;-62
2022/10/22 01:43:20;;;;;;;7.82;5.70;;;;;;;;;;627568;23;877;-62
2022/10/22 01:44:29;;;;;;;9.93;6.10;;;;;;;;;;631079;23;932;-62
2022/10/22 01:45:47;;;;;;;9.20;6.20;;;;;;;;;;631064;23;895;-62
2022/10/22 01:47:08;;;;;;;10.57;5.82;;;;;;;;;;631087;23;1537;-61
2022/10/22 01:48:23;;;;;;;8.07;5.70;;;;;;;;;;631447;23;1032;-61
2022/10/22 01:49:43;;;;;;;9.75;6.05;;;;;;;;;;631102;23;1247;-62
2022/10/22 01:51:25;;;;;;;8.02;6.03;;;;;;;;;;631267;23;1021;-62
2022/10/22 01:53:10;;;;;;;9.38;5.75;;;;;;;;;;631018;23;1203;-62
2022/10/22 01:54:30;;;;;;;8.60;5.57;;;;;;;;;;631029;23;1398;-62
2022/10/22 01:56:01;;;;;;;10.50;5.65;;;;;;;;;;628283;23;2191;-62
2022/10/22 01:57:08;;;;;;;11.00;5.97;;;;;;;;;;630492;23;905;-62
2022/10/22 01:58:41;;;;;;;10.50;6.30;;;;;;;;;;631250;23;1367;-61
2022/10/22 02:00:00;;;;;;;7.75;6.05;;;;;;;;;;630794;23;1053;-62
2022/10/22 02:01:15;;;;;;;8.70;5.93;;;;;;;;;;630939;23;1212;-62
2022/10/22 02:02:35;;;;;;;8.05;5.82;;;;;;;;;;630584;23;988;-62
2022/10/22 02:04:15;;;;;;;9.63;5.43;;;;;;;;;;631078;23;1268;-62
2022/10/22 02:05:22;;;;;;;6.75;5.75;;;;;;;;;;619062;23;1351;-62
2022/10/22 02:06:41;;;;;;;9.68;5.47;;;;;;;;;;630366;23;875;-62
2022/10/22 02:07:56;;;;;;;8.57;5.72;;;;;;;;;;628132;23;1034;-62
2022/10/22 02:09:06;;;;;;;9.88;5.68;;;;;;;;;;627858;23;2275;-62
2022/10/22 02:10:16;;;;;;;10.02;6.57;;;;;;;;;;630731;23;871;-62
2022/10/22 02:11:25;;;;;;;8.88;6.35;;;;;;;;;;630398;23;1402;-62
2022/10/22 02:12:34;;;;;;;9.40;6.15;;;;;;;;;;624307;23;1645;-62
2022/10/22 02:13:46;;;;;;;9.25;6.28;;;;;;;;;;631127;23;1102;-62
2022/10/22 02:14:55;;;;;;;10.80;6.60;;;;;;;;;;630698;23;1532;-62
2022/10/22 02:16:06;;;;;;;10.98;6.53;;;;;;;;;;626667;23;1245;-62
2022/10/22 02:17:19;;;;;;;9.48;6.28;;;;;;;;;;625399;23;1336;-62
2022/10/22 02:18:30;;;;;;;10.85;6.65;;;;;;;;;;628339;23;1494;-62
2022/10/22 02:19:45;;;;;;;10.35;6.30;;;;;;;;;;625396;23;1395;-62
2022/10/22 02:20:58;;;;;;;10.68;6.55;;;;;;;;;;623859;23;1257;-63
2022/10/22 02:22:07;;;;;;;7.17;5.73;;;;;;;;;;627238;23;1383;-62
2022/10/22 02:23:16;;;;;;;6.95;5.30;;;;;;;;;;631087;23;1355;-62
2022/10/22 02:24:24;;;;;;;8.07;5.30;;;;;;;;;;630556;23;1241;-62
2022/10/22 02:25:36;;;;;;;10.85;5.40;;;;;;;;;;630643;23;919;-62
2022/10/22 02:26:59;;;;;;;8.95;6.00;;;;;;;;;;628399;23;874;-62
2022/10/22 02:28:35;;;;;;;8.75;5.80;;;;;;;;;;630698;23;1104;-62
2022/10/22 02:29:52;;;;;;;8.45;5.78;;;;;;;;;;630508;23;1372;-63
2022/10/22 02:31:10;;;;;;;8.27;5.40;;;;;;;;;;627629;23;975;-62
2022/10/22 02:32:23;;;;;;;8.02;5.47;;;;;;;;;;630334;23;982;-62
2022/10/22 02:33:37;;;;;;;8.73;5.80;;;;;;;;;;625053;23;1680;-62
2022/10/22 02:34:48;;;;;;;8.40;5.18;;;;;;;;;;627907;23;1267;-62
2022/10/22 02:35:57;;;;;;;7.32;5.40;;;;;;;;;;631090;23;939;-62
2022/10/22 02:37:06;;;;;;;7.07;5.20;;;;;;;;;;630059;23;1258;-62
2022/10/22 02:38:16;;;;;;;7.15;5.53;;;;;;;;;;625022;23;923;-62
2022/10/22 02:39:25;;;;;;;9.40;5.63;;;;;;;;;;631009;23;1024;-61
2022/10/22 02:40:33;;;;;;;8.23;5.60;;;;;;;;;;631185;23;1030;-62
2022/10/22 02:41:41;;;;;;;10.23;5.32;;;;;;;;;;631606;23;982;-62
2022/10/22 02:42:50;;;;;;;8.43;5.28;;;;;;;;;;631532;23;858;-62
2022/10/22 02:43:57;;;;;;;7.60;5.20;;;;;;;;;;630081;23;1753;-62
2022/10/22 02:45:05;;;;;;;8.05;5.20;;;;;;;;;;627341;23;1509;-62
2022/10/22 02:46:14;;;;;;;10.50;5.90;;;;;;;;;;630599;23;974;-62
2022/10/22 02:47:21;;;;;;;9.00;5.40;;;;;;;;;;631499;23;1572;-62
2022/10/22 02:48:29;;;;;;;8.30;5.20;;;;;;;;;;627498;23;1363;-62
2022/10/22 02:49:37;;;;;;;7.88;5.30;;;;;;;;;;631106;23;1342;-62
2022/10/22 02:50:45;;;;;;;7.78;6.07;;;;;;;;;;634192;23;1092;-60
2022/10/22 02:51:53;;;;;;;9.15;5.40;;;;;;;;;;631415;23;1046;-62
2022/10/22 02:53:01;;;;;;;8.68;5.75;;;;;;;;;;631139;23;1208;-62
2022/10/22 02:54:08;;;;;;;11.80;5.60;;;;;;;;;;629796;23;1050;-62
2022/10/22 02:55:16;;;;;;;9.93;5.22;;;;;;;;;;630574;23;1343;-62
2022/10/22 02:56:24;;;;;;;8.75;5.22;;;;;;;;;;631433;23;990;-62
2022/10/22 02:57:32;;;;;;;10.55;5.15;;;;;;;;;;627406;23;852;-62
2022/10/22 02:58:40;;;;;;;5.85;4.65;;;;;;;;;;631080;23;2421;-62
2022/10/22 02:59:48;;;;;;;6.28;4.72;;;;;;;;;;627909;23;1436;-62
2022/10/22 03:00:57;;;;;;;5.07;4.30;;;;;;;;;;627093;23;1238;-61
2022/10/22 03:02:05;;;;;;;8.32;5.10;;;;;;;;;;631014;23;1366;-62
2022/10/22 03:03:13;;;;;;;12.07;6.20;;;;;;;;;;627874;23;1273;-61
2022/10/22 03:04:21;;;;;;;11.23;5.38;;;;;;;;;;627223;23;944;-62
2022/10/22 03:05:29;;;;;;;9.45;4.97;;;;;;;;;;625102;23;1954;-62
2022/10/22 03:06:36;;;;;;;8.48;4.55;;;;;;;;;;630080;23;1315;-62
2022/10/22 03:07:44;;;;;;;5.90;4.18;;;;;;;;;;630887;23;1018;-63
2022/10/22 03:08:52;;;;;;;5.80;4.40;;;;;;;;;;630325;23;1319;-62
2022/10/22 03:10:00;;;;;;;7.05;4.35;;;;;;;;;;624272;23;1207;-63
2022/10/22 03:11:08;;;;;;;7.15;4.55;;;;;;;;;;631140;23;1014;-62
2022/10/22 03:12:16;;;;;;;8.48;4.90;;;;;;;;;;630296;23;1051;-62
2022/10/22 03:13:23;;;;;;;7.78;4.30;;;;;;;;;;624923;23;1190;-62
2022/10/22 03:14:31;;;;;;;9.80;4.40;;;;;;;;;;621669;23;1355;-62
2022/10/22 03:15:39;;;;;;;8.25;4.45;;;;;;;;;;627410;23;937;-62
2022/10/22 03:16:47;;;;;;;8.90;4.57;;;;;;;;;;627641;23;1247;-62
2022/10/22 03:17:55;;;;;;;7.45;4.45;;;;;;;;;;627886;23;1326;-62
2022/10/22 03:19:02;;;;;;;9.65;4.25;;;;;;;;;;630361;23;1299;-62
2022/10/22 03:20:10;;;;;;;8.60;4.32;;;;;;;;;;628233;23;1394;-62
2022/10/22 03:21:21;;;;;;;9.50;4.43;;;;;;;;;;624905;23;1160;-62
2022/10/22 03:22:34;;;;;;;8.38;4.78;;;;;;;;;;628109;23;987;-62
2022/10/22 03:23:42;;;;;;;9.35;4.18;;;;;;;;;;634464;23;1283;-62
2022/10/22 03:24:52;;;;;;;8.68;4.68;;;;;;;;;;631372;23;943;-62
2022/10/22 03:26:03;;;;;;;6.97;4.65;;;;;;;;;;630694;23;1319;-62
2022/10/22 03:27:12;;;;;;;9.00;4.30;;;;;;;;;;624875;23;1359;-62
2022/10/22 03:28:20;;;;;;;5.47;4.45;;;;;;;;;;630993;23;965;-62
2022/10/22 03:29:30;;;;;;;8.10;4.80;;;;;;;;;;630277;23;1304;-62
2022/10/22 03:30:38;;;;;;;8.52;4.88;;;;;;;;;;630814;23;1702;-62
2022/10/22 03:31:46;;;;;;;6.75;4.60;;;;;;;;;;630537;23;1223;-62
2022/10/22 03:32:54;;;;;;;7.70;4.78;;;;;;;;;;630723;23;1069;-62
2022/10/22 03:34:02;;;;;;;7.25;4.60;;;;;;;;;;623831;23;1267;-62
2022/10/22 03:35:09;;;;;;;7.97;4.32;;;;;;;;;;625018;23;1115;-62
2022/10/22 03:36:17;;;;;;;7.65;4.60;;;;;;;;;;631268;23;1120;-62
2022/10/22 03:37:26;;;;;;;7.05;4.82;;;;;;;;;;630957;23;1402;-62
2022/10/22 03:38:35;;;;;;;7.35;4.85;;;;;;;;;;630483;23;1034;-62
2022/10/22 03:39:43;;;;;;;8.60;4.90;;;;;;;;;;625011;23;874;-62
2022/10/22 03:40:51;;;;;;;10.73;5.35;;;;;;;;;;623990;23;915;-62
2022/10/22 03:41:59;;;;;;;9.82;5.72;;;;;;;;;;627800;23;1410;-62
2022/10/22 03:43:07;;;;;;;9.63;5.30;;;;;;;;;;624871;23;1368;-62
2022/10/22 03:44:16;;;;;;;10.90;5.50;;;;;;;;;;628048;23;1378;-62
2022/10/22 03:45:24;;;;;;;9.60;5.05;;;;;;;;;;628102;23;1375;-62
2022/10/22 03:46:31;;;;;;;8.45;4.70;;;;;;;;;;621205;23;1523;-62
2022/10/22 03:47:39;;;;;;;9.57;5.10;;;;;;;;;;624952;23;1270;-62
2022/10/22 03:48:47;;;;;;;7.55;4.95;;;;;;;;;;630711;23;910;-62
2022/10/22 03:49:55;;;;;;;7.85;5.00;;;;;;;;;;625236;23;1403;-62
2022/10/22 03:51:03;;;;;;;8.73;5.05;;;;;;;;;;628272;23;1403;-62
2022/10/22 03:52:13;;;;;;;11.05;5.38;;;;;;;;;;627274;23;1152;-62
2022/10/22 03:53:26;;;;;;;11.07;5.32;;;;;;;;;;633987;23;863;-62
2022/10/22 03:54:34;;;;;;;7.68;5.07;;;;;;;;;;633737;23;1456;-62
2022/10/22 03:55:42;;;;;;;8.73;4.80;;;;;;;;;;627873;23;1311;-62
2022/10/22 03:56:50;;;;;;;8.57;4.93;;;;;;;;;;627057;23;1942;-62
2022/10/22 03:57:58;;;;;;;6.43;4.80;;;;;;;;;;628125;23;1631;-62
2022/10/22 03:59:06;;;;;;;7.57;4.97;;;;;;;;;;624550;23;1110;-62
2022/10/22 04:00:14;;;;;;;8.82;5.35;;;;;;;;;;625078;23;2059;-62
2022/10/22 04:01:22;;;;;;;8.15;4.90;;;;;;;;;;634330;23;1068;-62
2022/10/22 04:02:30;;;;;;;8.95;4.85;;;;;;;;;;630107;23;1817;-62
2022/10/22 04:03:38;;;;;;;6.68;4.68;;;;;;;;;;631218;23;930;-62
2022/10/22 04:04:46;;;;;;;8.43;4.65;;;;;;;;;;628165;23;1418;-62
2022/10/22 04:05:59;;;;;;;5.22;4.68;;;;;;;;;;624424;23;1387;-62
2022/10/22 04:07:07;;;;;;;10.77;4.93;;;;;;;;;;630590;23;1150;-62
2022/10/22 04:08:15;;;;;;;7.65;4.75;;;;;;;;;;630528;23;1442;-62
2022/10/22 04:09:23;;;;;;;9.57;4.93;;;;;;;;;;625025;23;1391;-62
2022/10/22 04:10:31;;;;;;;7.47;5.15;;;;;;;;;;626915;23;1032;-62
2022/10/22 04:11:43;;;;;;;11.00;5.40;;;;;;;;;;634339;23;1235;-62
2022/10/22 04:12:51;;;;;;;7.70;5.28;;;;;;;;;;630951;23;1423;-62
2022/10/22 04:13:59;;;;;;;8.80;5.40;;;;;;;;;;630363;23;1405;-62
2022/10/22 04:15:07;;;;;;;10.43;5.70;;;;;;;;;;627276;23;1248;-62
2022/10/22 04:16:18;;;;;;;10.13;5.70;;;;;;;;;;622139;23;1279;-62
2022/10/22 04:17:31;;;;;;;9.23;5.18;;;;;;;;;;626959;23;1201;-62
2022/10/22 04:18:39;;;;;;;7.38;5.15;;;;;;;;;;627892;23;1654;-62
2022/10/22 04:19:48;;;;;;;9.32;5.28;;;;;;;;;;631027;23;1070;-62
2022/10/22 04:20:56;;;;;;;6.53;4.80;;;;;;;;;;627240;23;2285;-62
2022/10/22 04:22:05;;;;;;;10.48;5.13;;;;;;;;;;627618;23;1061;-62
2022/10/22 04:23:13;;;;;;;8.23;4.78;;;;;;;;;;634149;23;1010;-62
2022/10/22 04:24:21;;;;;;;10.85;5.72;;;;;;;;;;630406;23;2547;-62
2022/10/22 04:25:29;;;;;;;8.48;5.35;;;;;;;;;;624929;23;1216;-62
2022/10/22 04:26:36;;;;;;;9.33;5.40;;;;;;;;;;628126;23;1305;-62
2022/10/22 04:27:47;;;;;;;7.72;5.45;;;;;;;;;;634210;23;855;-62
2022/10/22 04:28:57;;;;;;;11.18;5.57;;;;;;;;;;633423;23;1434;-62
2022/10/22 04:30:05;;;;;;;10.57;5.28;;;;;;;;;;631109;23;950;-62
2022/10/22 04:31:14;;;;;;;9.07;5.55;;;;;;;;;;627200;23;1106;-62
2022/10/22 04:32:22;;;;;;;7.00;5.00;;;;;;;;;;628113;23;1363;-62
2022/10/22 04:33:30;;;;;;;9.07;5.38;;;;;;;;;;627371;23;1963;-62
2022/10/22 04:34:38;;;;;;;10.25;5.65;;;;;;;;;;627256;23;940;-62
2022/10/22 04:35:46;;;;;;;7.95;4.90;;;;;;;;;;630467;23;1325;-62
2022/10/22 04:37:04;;;;;;;8.43;5.07;;;;;;;;;;631136;23;854;-62
2022/10/22 04:38:12;;;;;;;9.68;5.20;;;;;;;;;;630453;23;1268;-62
2022/10/22 04:39:20;;;;;;;8.23;5.32;;;;;;;;;;625276;23;1543;-62
2022/10/22 04:40:28;;;;;;;10.60;5.03;;;;;;;;;;625047;23;1009;-62
2022/10/22 04:41:37;;;;;;;9.43;5.40;;;;;;;;;;630363;23;1065;-62
2022/10/22 04:42:45;;;;;;;7.95;5.20;;;;;;;;;;630891;23;1354;-62
2022/10/22 04:43:53;;;;;;;9.70;5.30;;;;;;;;;;627771;23;964;-62
2022/10/22 04:45:01;;;;;;;6.15;4.43;;;;;;;;;;627936;23;2169;-62
2022/10/22 04:46:09;;;;;;;9.43;5.15;;;;;;;;;;624905;23;1366;-62
2022/10/22 04:47:19;;;;;;;7.55;5.20;;;;;;;;;;627498;23;1320;-62
2022/10/22 04:48:27;;;;;;;9.80;5.22;;;;;;;;;;631175;23;970;-62
2022/10/22 04:49:36;;;;;;;7.93;4.90;;;;;;;;;;632820;23;1220;-62
2022/10/22 04:50:43;;;;;;;8.20;5.95;;;;;;;;;;627694;23;1358;-62
2022/10/22 04:51:52;;;;;;;9.68;4.82;;;;;;;;;;627941;23;1121;-62
2022/10/22 04:52:59;;;;;;;8.63;4.88;;;;;;;;;;631062;23;1239;-62
2022/10/22 04:54:07;;;;;;;9.55;4.78;;;;;;;;;;624651;23;1233;-62
2022/10/22 04:55:15;;;;;;;16.60;7.85;;;;;;;;;;626749;23;1486;-62
2022/10/22 04:56:30;;;;;;;7.07;4.60;;;;;;;;;;624766;23;1253;-63
2022/10/22 04:57:38;;;;;;;8.98;4.93;;;;;;;;;;628122;23;1205;-63
2022/10/22 04:58:52;;;;;;;81.65;33.83;;;;;;;;;;627282;23;1191;-63
2022/10/22 05:00:00;;;;;;;56.85;25.23;;;;;;;;;;624909;23;1459;-63
2022/10/22 05:01:12;;;;;;;25.30;12.55;;;;;;;;;;627022;23;979;-63
2022/10/22 05:02:21;;;;;;;22.27;9.80;;;;;;;;;;627418;23;2042;-63
2022/10/22 05:03:29;;;;;;;25.10;11.07;;;;;;;;;;630256;23;1223;-63
2022/10/22 05:04:37;;;;;;;30.23;13.88;;;;;;;;;;630407;23;1189;-63
2022/10/22 05:05:45;;;;;;;49.33;22.05;;;;;;;;;;629888;23;927;-63
2022/10/22 05:06:53;;;;;;;33.33;14.15;;;;;;;;;;627262;23;1387;-63
2022/10/22 05:08:01;;;;;;;20.10;9.57;;;;;;;;;;627811;23;1447;-63
2022/10/22 05:09:11;;;;;;;9.70;6.03;;;;;;;;;;623962;23;1359;-62
2022/10/22 05:10:19;;;;;;;10.38;5.63;;;;;;;;;;624479;23;1328;-63
2022/10/22 05:11:28;;;;;;;8.60;4.78;;;;;;;;;;629873;23;895;-63
2022/10/22 05:12:37;;;;;;;6.78;4.45;;;;;;;;;;627602;23;1279;-62
2022/10/22 05:13:45;;;;;;;9.65;4.28;;;;;;;;;;626750;23;1421;-63
2022/10/22 05:14:54;;;;;;;7.70;4.25;;;;;;;;;;630474;23;1354;-63
2022/10/22 05:16:03;;;;;;;6.82;3.60;;;;;;;;;;627165;23;1323;-63
2022/10/22 05:17:10;;;;;;;7.97;3.80;;;;;;;;;;627981;23;1257;-62
2022/10/22 05:18:18;;;;;;;8.48;4.00;;;;;;;;;;630533;23;1901;-63
2022/10/22 05:19:30;;;;;;;9.10;4.20;;;;;;;;;;629971;23;1196;-63
2022/10/22 05:20:39;;;;;;;8.43;3.80;;;;;;;;;;627355;23;1344;-63
2022/10/22 05:21:47;;;;;;;9.23;4.10;;;;;;;;;;626721;23;1386;-63
2022/10/22 05:22:56;;;;;;;9.48;3.65;;;;;;;;;;627648;23;833;-63
2022/10/22 05:24:04;;;;;;;7.55;3.70;;;;;;;;;;629685;23;1537;-63
2022/10/22 05:25:12;;;;;;;7.22;3.70;;;;;;;;;;630984;23;808;-63
2022/10/22 05:26:21;;;;;;;9.02;3.70;;;;;;;;;;629377;23;1558;-63
2022/10/22 05:27:29;;;;;;;8.57;3.30;;;;;;;;;;630631;23;1028;-63
2022/10/22 05:28:40;;;;;;;9.35;3.45;;;;;;;;;;630591;23;1382;-62
2022/10/22 05:29:49;;;;;;;8.48;3.22;;;;;;;;;;627883;23;1220;-63
2022/10/22 05:30:58;;;;;;;7.32;3.20;;;;;;;;;;626978;23;1610;-62
2022/10/22 05:32:06;;;;;;;6.57;3.20;;;;;;;;;;630616;23;1355;-63
2022/10/22 05:33:14;;;;;;;7.32;3.20;;;;;;;;;;627615;23;1375;-63
2022/10/22 05:34:23;;;;;;;7.22;3.20;;;;;;;;;;630492;23;1323;-63
2022/10/22 05:35:31;;;;;;;8.90;3.30;;;;;;;;;;630539;23;840;-63
2022/10/22 05:36:39;;;;;;;7.90;3.30;;;;;;;;;;626908;23;2051;-63
2022/10/22 05:37:47;;;;;;;6.90;2.85;;;;;;;;;;628012;23;1212;-62
2022/10/22 05:38:55;;;;;;;7.03;2.90;;;;;;;;;;625625;23;1439;-63
2022/10/22 05:40:04;;;;;;;6.60;2.90;;;;;;;;;;624299;23;1023;-63
2022/10/22 05:41:13;;;;;;;7.63;3.00;;;;;;;;;;630538;23;1248;-63
2022/10/22 05:42:21;;;;;;;8.68;2.97;;;;;;;;;;630206;23;1315;-63
2022/10/22 05:43:29;;;;;;;6.35;2.78;;;;;;;;;;624600;23;1482;-62
2022/10/22 05:44:39;;;;;;;6.97;2.90;;;;;;;;;;623523;23;1407;-63
2022/10/22 05:45:47;;;;;;;6.95;2.70;;;;;;;;;;630602;23;848;-63
2022/10/22 05:46:56;;;;;;;6.20;2.70;;;;;;;;;;629939;23;750;-63
2022/10/22 05:48:04;;;;;;;8.02;2.80;;;;;;;;;;630538;23;1283;-63
2022/10/22 05:49:14;;;;;;;8.10;2.67;;;;;;;;;;630284;23;916;-62
2022/10/22 05:50:21;;;;;;;7.10;2.85;;;;;;;;;;624601;23;1407;-62
2022/10/22 05:51:31;;;;;;;5.88;2.65;;;;;;;;;;627782;23;764;-63
2022/10/22 05:52:39;;;;;;;6.93;2.70;;;;;;;;;;630001;23;1452;-63
2022/10/22 05:53:50;;;;;;;8.95;3.00;;;;;;;;;;627541;23;1002;-63
2022/10/22 05:54:59;;;;;;;7.55;2.63;;;;;;;;;;624675;23;1419;-62
2022/10/22 05:56:11;;;;;;;7.00;2.60;;;;;;;;;;627695;23;897;-62
2022/10/22 05:57:20;;;;;;;8.05;3.00;;;;;;;;;;630760;23;956;-63
2022/10/22 05:58:28;;;;;;;6.95;2.75;;;;;;;;;;629753;23;954;-63
2022/10/22 05:59:36;;;;;;;7.72;3.00;;;;;;;;;;626781;23;1276;-63
2022/10/22 06:00:44;;;;;;;5.80;2.78;;;;;;;;;;627275;23;945;-62
2022/10/22 06:01:52;;;;;;;7.47;3.03;;;;;;;;;;630401;23;1302;-63
2022/10/22 06:03:00;;;;;;;7.60;3.15;;;;;;;;;;627657;23;1351;-63
2022/10/22 06:04:10;;;;;;;7.07;2.83;;;;;;;;;;626701;23;1363;-63
2022/10/22 06:05:18;;;;;;;8.68;2.88;;;;;;;;;;627833;23;1426;-63
2022/10/22 06:06:41;;;;;;;6.95;2.80;;;;;;;;;;623022;23;1116;-63
2022/10/22 06:07:49;;;;;;;6.07;2.85;;;;;;;;;;630547;23;1379;-62
2022/10/22 06:08:59;;;;;;;5.93;2.80;;;;;;;;;;626290;23;1344;-63
2022/10/22 06:10:14;;;;;;;7.18;3.10;;;;;;;;;;630836;23;1010;-63
2022/10/22 06:11:22;;;;;;;7.55;3.28;;;;;;;;;;631084;23;885;-63
2022/10/22 06:12:30;;;;;;;6.38;2.78;;;;;;;;;;630570;23;2305;-63
2022/10/22 06:13:38;;;;;;;8.55;3.50;;;;;;;;;;627703;23;1284;-63
2022/10/22 06:14:46;;;;;;;14.10;10.55;;;;;;;;;;629840;23;1197;-63
2022/10/22 06:15:55;;;;;;;12.65;8.75;;;;;;;;;;630668;23;1180;-63
2022/10/22 06:17:03;;;;;;;11.48;7.85;;;;;;;;;;629771;23;1350;-63
2022/10/22 06:18:11;;;;;;;9.40;6.03;;;;;;;;;;626646;23;1272;-63
2022/10/22 06:19:20;;;;;;;6.53;2.97;;;;;;;;;;627549;23;1829;-63
2022/10/22 06:20:27;;;;;;;7.32;2.67;;;;;;;;;;627594;23;919;-63
2022/10/22 06:21:35;;;;;;;7.43;2.83;;;;;;;;;;627273;23;1095;-63
2022/10/22 06:22:43;;;;;;;7.82;2.45;;;;;;;;;;627591;23;1352;-63
2022/10/22 06:23:51;;;;;;;6.75;2.50;;;;;;;;;;627013;23;1276;-63
2022/10/22 06:24:59;;;;;;;6.00;2.58;;;;;;;;;;624489;23;1300;-63
2022/10/22 06:26:07;;;;;;;7.60;3.00;;;;;;;;;;627594;23;1415;-63
2022/10/22 06:27:15;;;;;;;6.50;2.80;;;;;;;;;;626797;23;1054;-63
2022/10/22 06:28:23;;;;;;;7.03;2.97;;;;;;;;;;630708;23;899;-62
2022/10/22 06:29:31;;;;;;;9.18;2.63;;;;;;;;;;630255;23;1231;-63
2022/10/22 06:30:39;;;;;;;6.72;2.35;;;;;;;;;;627513;23;1214;-63
2022/10/22 06:31:49;;;;;;;7.90;3.05;;;;;;;;;;629850;23;889;-63
2022/10/22 06:32:57;;;;;;;5.75;2.72;;;;;;;;;;630045;23;924;-63
2022/10/22 06:34:06;;;;;;;8.20;2.90;;;;;;;;;;630481;23;1362;-63
2022/10/22 06:35:14;;;;;;;7.38;2.70;;;;;;;;;;626992;23;2364;-63
2022/10/22 06:36:23;;;;;;;7.28;2.80;;;;;;;;;;629735;23;1279;-62
2022/10/22 06:37:30;;;;;;;6.28;2.45;;;;;;;;;;630463;23;1275;-63
2022/10/22 06:38:39;;;;;;;6.90;2.40;;;;;;;;;;624662;23;2295;-62
2022/10/22 06:39:47;;;;;;;7.47;2.60;;;;;;;;;;630280;23;1937;-62
2022/10/22 06:40:55;;;;;;;5.85;2.30;;;;;;;;;;632343;23;946;-63
2022/10/22 06:42:04;;;;;;;7.10;2.40;;;;;;;;;;629395;23;1239;-63
2022/10/22 06:43:12;;;;;;;5.67;2.80;;;;;;;;;;627530;23;876;-63
2022/10/22 06:44:20;;;;;;;9.50;5.70;;;;;;;;;;627215;23;1362;-63
2022/10/22 06:45:28;;;;;;;7.13;2.80;;;;;;;;;;627015;23;1234;-63
2022/10/22 06:46:36;;;;;;;6.68;2.72;;;;;;;;;;626106;23;1348;-63
2022/10/22 06:47:45;;;;;;;4.72;2.45;;;;;;;;;;627399;23;1232;-62
2022/10/22 06:48:54;;;;;;;5.93;2.50;;;;;;;;;;630377;23;927;-63
2022/10/22 06:50:06;;;;;;;7.10;2.45;;;;;;;;;;627655;23;1366;-62
2022/10/22 06:51:14;;;;;;;8.77;2.45;;;;;;;;;;629583;23;981;-63
2022/10/22 06:52:22;;;;;;;7.82;2.33;;;;;;;;;;630188;23;1287;-62
2022/10/22 06:53:30;;;;;;;5.63;2.05;;;;;;;;;;626884;23;1370;-63
2022/10/22 06:54:38;;;;;;;7.50;2.50;;;;;;;;;;630229;23;796;-63
2022/10/22 06:55:46;;;;;;;4.18;2.05;;;;;;;;;;630169;23;1113;-63
2022/10/22 06:56:57;;;;;;;5.20;2.15;;;;;;;;;;627270;23;1351;-63
2022/10/22 06:58:05;;;;;;;5.35;2.58;;;;;;;;;;627819;23;1547;-63
2022/10/22 06:59:13;;;;;;;6.32;2.17;;;;;;;;;;627283;23;1042;-63
2022/10/22 07:00:21;;;;;;;7.47;2.30;;;;;;;;;;630350;23;925;-63
2022/10/22 07:01:31;;;;;;;7.05;2.10;;;;;;;;;;630494;23;1100;-62
2022/10/22 07:02:39;;;;;;;5.13;1.90;;;;;;;;;;627401;23;1312;-63
2022/10/22 07:03:49;;;;;;;6.40;2.20;;;;;;;;;;623226;23;1065;-63
2022/10/22 07:04:57;;;;;;;7.70;2.30;;;;;;;;;;627346;23;1269;-63
2022/10/22 07:06:07;;;;;;;7.78;2.20;;;;;;;;;;630474;23;919;-63
2022/10/22 07:07:16;;;;;;;6.70;2.22;;;;;;;;;;630323;23;1034;-62
2022/10/22 07:08:24;;;;;;;6.05;1.95;;;;;;;;;;624284;23;1213;-63
2022/10/22 07:09:32;;;;;;;5.47;2.10;;;;;;;;;;630415;23;881;-62
2022/10/22 07:10:40;;;;;;;7.43;2.40;;;;;;;;;;630394;23;1942;-63
2022/10/22 07:11:48;;;;;;;6.03;2.13;;;;;;;;;;627222;23;1048;-63
2022/10/22 07:12:57;;;;;;;7.97;2.38;;;;;;;;;;626404;23;1216;-63
2022/10/22 07:14:05;;;;;;;7.20;2.28;;;;;;;;;;626908;23;924;-63
2022/10/22 07:15:13;;;;;;;5.63;2.05;;;;;;;;;;629480;23;1251;-63